createdAt,value
2017-08-26T00:00:31.027Z,0
2017-08-26T00:01:11.493Z,0
2017-08-26T00:01:51.960Z,0
2017-08-26T00:02:32.426Z,0
2017-08-26T00:03:12.889Z,0
2017-08-26T00:03:53.340Z,0
2017-08-26T00:04:33.802Z,0
2017-08-26T00:05:14.259Z,0
2017-08-26T00:05:54.695Z,0
2017-08-26T00:06:35.150Z,0
2017-08-26T00:07:15.611Z,0
2017-08-26T00:07:56.070Z,0
2017-08-26T00:08:36.529Z,0
2017-08-26T00:11:04.430Z,0
2017-08-26T00:11:44.885Z,0
2017-08-26T00:12:25.342Z,0
2017-08-26T00:13:05.795Z,0
2017-08-26T00:13:46.259Z,0
2017-08-26T00:14:26.709Z,0
2017-08-26T00:15:07.168Z,0
2017-08-26T00:15:47.624Z,0
2017-08-26T00:16:28.088Z,0
2017-08-26T00:17:08.544Z,0
2017-08-26T00:17:48.993Z,0
2017-08-26T00:18:29.455Z,0
2017-08-26T00:19:09.918Z,0
2017-08-26T00:19:50.366Z,0
2017-08-26T00:20:30.819Z,0
2017-08-26T00:21:11.285Z,0
2017-08-26T00:21:51.740Z,0
2017-08-26T00:22:32.188Z,0
2017-08-26T00:23:12.636Z,0
2017-08-26T00:23:53.091Z,0
2017-08-26T00:24:33.543Z,0
2017-08-26T00:25:13.991Z,0
2017-08-26T00:25:54.450Z,0
2017-08-26T00:26:34.915Z,0
2017-08-26T00:27:15.375Z,0
2017-08-26T00:27:55.829Z,0
2017-08-26T00:28:36.293Z,0
2017-08-26T00:29:16.745Z,0
2017-08-26T00:29:57.197Z,0
2017-08-26T00:30:37.660Z,0
2017-08-26T00:31:18.112Z,0
2017-08-26T00:31:58.560Z,0
2017-08-26T00:32:39.013Z,0
2017-08-26T00:33:19.480Z,0
2017-08-26T00:33:59.917Z,0
2017-08-26T00:34:40.363Z,0
2017-08-26T00:35:20.823Z,0
2017-08-26T00:36:01.270Z,0
2017-08-26T00:36:41.749Z,0
2017-08-26T00:37:22.190Z,0
2017-08-26T00:38:02.657Z,0
2017-08-26T00:38:43.103Z,0
2017-08-26T00:39:23.561Z,0
2017-08-26T00:40:04.017Z,0
2017-08-26T00:40:44.474Z,0
2017-08-26T00:41:24.937Z,0
2017-08-26T00:42:05.389Z,0
2017-08-26T00:42:45.852Z,0
2017-08-26T00:43:26.305Z,0
2017-08-26T00:44:06.759Z,0
2017-08-26T00:44:47.217Z,0
2017-08-26T00:45:27.679Z,0
2017-08-26T00:46:08.133Z,0
2017-08-26T00:46:48.587Z,0
2017-08-26T00:47:29.042Z,0
2017-08-26T00:48:09.499Z,0
2017-08-26T00:48:49.957Z,0
2017-08-26T00:49:30.407Z,0
2017-08-26T00:50:10.857Z,0
2017-08-26T00:50:51.314Z,0
2017-08-26T00:51:31.770Z,0
2017-08-26T00:52:12.217Z,0
2017-08-26T00:52:52.676Z,0
2017-08-26T00:53:33.123Z,0
2017-08-26T00:54:13.584Z,0
2017-08-26T00:54:54.037Z,0
2017-08-26T00:55:34.491Z,0
2017-08-26T00:56:14.942Z,0
2017-08-26T00:56:55.394Z,0
2017-08-26T00:57:35.857Z,0
2017-08-26T00:58:16.310Z,0
2017-08-26T00:58:56.801Z,0
2017-08-26T00:59:37.223Z,0
2017-08-26T01:00:17.692Z,0
2017-08-26T01:00:58.160Z,0
2017-08-26T01:01:38.611Z,0
2017-08-26T01:02:19.070Z,0
2017-08-26T01:02:59.544Z,0
2017-08-26T01:03:39.966Z,0
2017-08-26T01:04:20.415Z,0
2017-08-26T01:05:00.871Z,0
2017-08-26T01:05:41.324Z,0
2017-08-26T01:06:21.777Z,0
2017-08-26T01:07:02.235Z,0
2017-08-26T01:07:42.692Z,0
2017-08-26T01:08:23.149Z,0
2017-08-26T01:09:03.628Z,0
2017-08-26T01:09:44.066Z,0
2017-08-26T01:10:24.521Z,0
2017-08-26T01:11:04.983Z,0
2017-08-26T01:11:45.431Z,0
2017-08-26T01:12:25.896Z,0
2017-08-26T01:13:06.353Z,0
2017-08-26T01:13:46.807Z,0
2017-08-26T01:14:27.265Z,0
2017-08-26T01:15:07.725Z,0
2017-08-26T01:15:48.181Z,0
2017-08-26T01:16:28.641Z,0
2017-08-26T01:17:09.108Z,0
2017-08-26T01:17:49.562Z,0
2017-08-26T01:18:30.016Z,0
2017-08-26T01:19:10.464Z,0
2017-08-26T01:19:50.920Z,0
2017-08-26T01:20:31.387Z,0
2017-08-26T01:21:11.841Z,0
2017-08-26T01:21:52.300Z,0
2017-08-26T01:22:32.748Z,0
2017-08-26T01:23:13.202Z,0
2017-08-26T01:23:53.657Z,0
2017-08-26T01:24:34.110Z,0
2017-08-26T01:25:14.575Z,0
2017-08-26T01:25:55.031Z,0
2017-08-26T01:26:35.479Z,0
2017-08-26T01:27:15.941Z,0
2017-08-26T01:27:56.406Z,0
2017-08-26T01:28:36.857Z,0
2017-08-26T01:29:17.305Z,0
2017-08-26T01:29:57.773Z,0
2017-08-26T01:30:38.223Z,0
2017-08-26T01:31:18.676Z,0
2017-08-26T01:31:59.136Z,0
2017-08-26T01:32:39.592Z,0
2017-08-26T01:33:20.061Z,0
2017-08-26T01:34:00.508Z,0
2017-08-26T01:34:40.963Z,0
2017-08-26T01:35:21.416Z,0
2017-08-26T01:36:01.862Z,0
2017-08-26T01:36:42.317Z,0
2017-08-26T01:37:22.769Z,0
2017-08-26T01:38:03.224Z,0
2017-08-26T01:38:43.680Z,0
2017-08-26T01:39:24.189Z,0
2017-08-26T01:40:04.634Z,0
2017-08-26T01:40:45.091Z,0
2017-08-26T01:41:25.551Z,0
2017-08-26T01:42:05.993Z,0
2017-08-26T01:42:46.444Z,0
2017-08-26T01:43:26.902Z,0
2017-08-26T01:44:07.359Z,0
2017-08-26T01:44:47.814Z,0
2017-08-26T01:45:28.268Z,0
2017-08-26T01:46:08.747Z,0
2017-08-26T01:46:49.185Z,0
2017-08-26T01:47:29.638Z,0
2017-08-26T01:48:10.086Z,0
2017-08-26T01:48:50.543Z,0
2017-08-26T01:49:30.999Z,0
2017-08-26T01:50:11.463Z,0
2017-08-26T01:50:51.931Z,0
2017-08-26T01:51:32.376Z,0
2017-08-26T01:52:12.832Z,0
2017-08-26T01:52:53.289Z,0
2017-08-26T01:53:33.744Z,0
2017-08-26T01:54:14.204Z,0
2017-08-26T01:54:54.662Z,0
2017-08-26T01:55:35.119Z,0
2017-08-26T01:56:15.567Z,0
2017-08-26T01:56:56.018Z,0
2017-08-26T01:57:36.477Z,0
2017-08-26T01:58:16.930Z,0
2017-08-26T01:58:57.385Z,0
2017-08-26T01:59:37.842Z,0
2017-08-26T02:00:18.299Z,0
2017-08-26T02:00:58.758Z,0
2017-08-26T02:01:39.207Z,0
2017-08-26T02:02:19.655Z,0
2017-08-26T02:03:00.121Z,0
2017-08-26T02:03:40.565Z,0
2017-08-26T02:04:21.009Z,0
2017-08-26T02:05:01.454Z,0
2017-08-26T02:05:41.907Z,0
2017-08-26T02:07:59.851Z,0
2017-08-26T02:08:40.301Z,0
2017-08-26T02:09:20.756Z,0
2017-08-26T02:10:01.218Z,0
2017-08-26T02:10:41.666Z,0
2017-08-26T02:12:59.608Z,0
2017-08-26T02:13:40.049Z,0
2017-08-26T02:14:20.500Z,0
2017-08-26T02:15:00.960Z,0
2017-08-26T02:15:41.419Z,0
2017-08-26T02:16:21.874Z,0
2017-08-26T02:17:02.329Z,0
2017-08-26T02:17:42.793Z,0
2017-08-26T02:18:23.245Z,0
2017-08-26T02:19:03.700Z,0
2017-08-26T02:19:44.154Z,0
2017-08-26T02:20:24.611Z,0
2017-08-26T02:21:05.079Z,0
2017-08-26T02:21:45.530Z,0
2017-08-26T02:22:25.994Z,0
2017-08-26T02:23:06.456Z,0
2017-08-26T02:23:46.888Z,0
2017-08-26T02:24:27.333Z,0
2017-08-26T02:25:07.803Z,0
2017-08-26T02:25:48.261Z,0
2017-08-26T02:26:28.714Z,0
2017-08-26T02:27:09.166Z,0
2017-08-26T02:27:49.620Z,0
2017-08-26T02:28:30.077Z,0
2017-08-26T02:29:10.535Z,0
2017-08-26T02:29:50.983Z,0
2017-08-26T02:30:31.449Z,0
2017-08-26T02:31:11.907Z,0
2017-08-26T02:31:52.361Z,0
2017-08-26T02:32:32.819Z,0
2017-08-26T02:33:13.271Z,0
2017-08-26T02:33:53.729Z,0
2017-08-26T02:34:34.188Z,0
2017-08-26T02:35:14.648Z,0
2017-08-26T02:35:55.104Z,0
2017-08-26T02:36:35.562Z,0
2017-08-26T02:37:16.021Z,0
2017-08-26T02:37:56.482Z,0
2017-08-26T02:38:36.937Z,0
2017-08-26T02:39:17.401Z,0
2017-08-26T02:39:57.867Z,0
2017-08-26T02:40:38.349Z,0
2017-08-26T02:41:18.797Z,0
2017-08-26T02:41:59.244Z,0
2017-08-26T02:42:39.702Z,0
2017-08-26T02:43:20.157Z,0
2017-08-26T02:44:00.607Z,0
2017-08-26T02:44:41.057Z,0
2017-08-26T02:45:21.501Z,0
2017-08-26T02:46:01.953Z,0
2017-08-26T02:46:42.408Z,0
2017-08-26T02:47:22.860Z,0
2017-08-26T02:48:03.318Z,0
2017-08-26T02:48:43.775Z,0
2017-08-26T02:49:24.238Z,0
2017-08-26T02:50:04.689Z,0
2017-08-26T02:50:45.142Z,0
2017-08-26T02:51:25.597Z,0
2017-08-26T02:52:06.054Z,0
2017-08-26T02:52:46.514Z,0
2017-08-26T02:53:26.963Z,0
2017-08-26T02:54:07.410Z,0
2017-08-26T02:54:47.876Z,0
2017-08-26T02:55:28.341Z,0
2017-08-26T02:56:08.794Z,0
2017-08-26T02:56:49.257Z,0
2017-08-26T02:57:29.705Z,0
2017-08-26T02:58:10.179Z,0
2017-08-26T02:58:50.626Z,0
2017-08-26T02:59:31.089Z,0
2017-08-26T03:00:11.540Z,0
2017-08-26T03:00:51.993Z,0
2017-08-26T03:01:32.449Z,0
2017-08-26T03:02:12.890Z,0
2017-08-26T03:02:53.343Z,0
2017-08-26T03:03:33.793Z,0
2017-08-26T03:04:14.248Z,0
2017-08-26T03:04:54.711Z,0
2017-08-26T03:05:35.192Z,0
2017-08-26T03:06:15.642Z,0
2017-08-26T03:06:56.103Z,0
2017-08-26T03:07:36.562Z,0
2017-08-26T03:08:17.020Z,0
2017-08-26T03:08:57.492Z,0
2017-08-26T03:09:37.947Z,0
2017-08-26T03:10:18.410Z,0
2017-08-26T03:10:58.860Z,0
2017-08-26T03:11:39.328Z,0
2017-08-26T03:12:19.771Z,0
2017-08-26T03:13:00.221Z,0
2017-08-26T03:13:40.677Z,0
2017-08-26T03:14:21.136Z,0
2017-08-26T03:15:01.596Z,0
2017-08-26T03:15:42.051Z,0
2017-08-26T03:16:22.540Z,0
2017-08-26T03:17:03.006Z,0
2017-08-26T03:17:43.458Z,0
2017-08-26T03:18:23.909Z,0
2017-08-26T03:19:04.365Z,0
2017-08-26T03:19:44.812Z,0
2017-08-26T03:20:25.288Z,0
2017-08-26T03:21:05.729Z,0
2017-08-26T03:21:46.182Z,0
2017-08-26T03:22:26.631Z,0
2017-08-26T03:23:07.098Z,0
2017-08-26T03:23:47.549Z,0
2017-08-26T03:24:28.044Z,0
2017-08-26T03:25:08.443Z,0
2017-08-26T03:25:48.905Z,0
2017-08-26T03:26:29.358Z,0
2017-08-26T03:27:09.811Z,0
2017-08-26T03:27:50.259Z,0
2017-08-26T03:28:30.711Z,0
2017-08-26T03:29:11.158Z,0
2017-08-26T03:29:51.632Z,0
2017-08-26T03:30:32.062Z,0
2017-08-26T03:31:12.522Z,0
2017-08-26T03:31:52.975Z,0
2017-08-26T03:32:33.430Z,0
2017-08-26T03:33:13.884Z,0
2017-08-26T03:33:54.348Z,0
2017-08-26T03:34:34.800Z,0
2017-08-26T03:35:15.255Z,0
2017-08-26T03:35:55.734Z,0
2017-08-26T03:36:36.188Z,0
2017-08-26T03:37:16.634Z,0
2017-08-26T03:37:57.135Z,0
2017-08-26T03:38:37.564Z,0
2017-08-26T03:39:18.013Z,0
2017-08-26T03:39:58.474Z,0
2017-08-26T03:40:38.933Z,0
2017-08-26T03:41:19.389Z,0
2017-08-26T03:41:59.854Z,0
2017-08-26T03:42:40.288Z,0
2017-08-26T03:43:20.737Z,0
2017-08-26T03:44:01.201Z,0
2017-08-26T03:44:41.661Z,0
2017-08-26T03:45:22.114Z,0
2017-08-26T03:46:02.563Z,0
2017-08-26T03:46:43.016Z,0
2017-08-26T03:47:23.473Z,0
2017-08-26T03:48:03.929Z,0
2017-08-26T03:48:44.382Z,0
2017-08-26T03:49:24.850Z,0
2017-08-26T03:50:05.305Z,0
2017-08-26T03:50:45.765Z,0
2017-08-26T03:51:26.231Z,0
2017-08-26T03:52:06.685Z,0
2017-08-26T03:52:47.141Z,0
2017-08-26T03:53:27.599Z,0
2017-08-26T03:54:08.051Z,0
2017-08-26T03:54:48.503Z,0
2017-08-26T03:55:28.954Z,0
2017-08-26T03:56:09.409Z,0
2017-08-26T03:56:49.867Z,0
2017-08-26T03:57:30.318Z,0
2017-08-26T03:58:10.768Z,0
2017-08-26T03:58:51.226Z,0
2017-08-26T03:59:31.720Z,0
2017-08-26T04:00:12.146Z,0
2017-08-26T04:00:52.606Z,0
2017-08-26T04:01:33.057Z,0
2017-08-26T04:02:13.501Z,0
2017-08-26T04:02:53.958Z,0
2017-08-26T04:03:34.406Z,0
2017-08-26T04:04:14.857Z,0
2017-08-26T04:04:55.305Z,0
2017-08-26T04:05:35.761Z,0
2017-08-26T04:06:16.209Z,0
2017-08-26T04:06:56.659Z,0
2017-08-26T04:07:37.110Z,0
2017-08-26T04:08:17.565Z,0
2017-08-26T04:08:58.020Z,0
2017-08-26T04:09:38.469Z,0
2017-08-26T04:10:18.926Z,0
2017-08-26T04:10:59.390Z,0
2017-08-26T04:11:39.840Z,0
2017-08-26T04:12:20.304Z,0
2017-08-26T04:13:00.765Z,0
2017-08-26T04:13:41.216Z,0
2017-08-26T04:14:21.667Z,0
2017-08-26T04:15:02.180Z,0
2017-08-26T04:15:42.623Z,0
2017-08-26T04:16:23.037Z,0
2017-08-26T04:17:03.483Z,0
2017-08-26T04:17:43.953Z,0
2017-08-26T04:18:24.381Z,0
2017-08-26T04:19:04.847Z,0
2017-08-26T04:19:45.278Z,0
2017-08-26T04:20:25.720Z,0
2017-08-26T04:21:06.167Z,0
2017-08-26T04:21:46.618Z,0
2017-08-26T04:22:27.072Z,0
2017-08-26T04:23:07.520Z,0
2017-08-26T04:23:47.973Z,0
2017-08-26T04:24:28.432Z,0
2017-08-26T04:25:08.880Z,0
2017-08-26T04:25:49.321Z,0
2017-08-26T04:26:29.776Z,0
2017-08-26T04:27:10.230Z,0
2017-08-26T04:27:50.678Z,0
2017-08-26T04:28:31.134Z,0
2017-08-26T04:29:11.594Z,0
2017-08-26T04:29:52.053Z,0
2017-08-26T04:30:32.515Z,0
2017-08-26T04:31:12.973Z,0
2017-08-26T04:31:53.427Z,0
2017-08-26T04:32:33.903Z,0
2017-08-26T04:33:14.351Z,0
2017-08-26T04:33:54.799Z,0
2017-08-26T04:34:35.274Z,0
2017-08-26T04:35:15.699Z,0
2017-08-26T04:35:56.166Z,0
2017-08-26T04:36:36.621Z,0
2017-08-26T04:37:17.076Z,0
2017-08-26T04:37:57.530Z,0
2017-08-26T04:38:37.993Z,0
2017-08-26T04:39:18.451Z,0
2017-08-26T04:39:58.900Z,0
2017-08-26T04:40:39.359Z,0
2017-08-26T04:41:19.815Z,0
2017-08-26T04:42:00.279Z,0
2017-08-26T04:42:40.726Z,0
2017-08-26T04:43:21.179Z,0
2017-08-26T04:44:01.636Z,0
2017-08-26T04:44:42.089Z,0
2017-08-26T04:45:22.528Z,0
2017-08-26T04:46:03.000Z,0
2017-08-26T04:46:43.426Z,0
2017-08-26T04:47:23.870Z,0
2017-08-26T04:48:04.321Z,0
2017-08-26T04:48:44.780Z,0
2017-08-26T04:49:25.246Z,0
2017-08-26T04:50:05.692Z,0
2017-08-26T04:50:46.147Z,0
2017-08-26T04:51:26.633Z,0
2017-08-26T04:52:07.081Z,0
2017-08-26T04:52:47.534Z,0
2017-08-26T04:53:27.986Z,0
2017-08-26T04:54:08.441Z,0
2017-08-26T04:54:48.898Z,0
2017-08-26T04:55:29.352Z,0
2017-08-26T04:56:09.808Z,0
2017-08-26T04:56:50.262Z,0
2017-08-26T04:57:30.715Z,0
2017-08-26T04:58:11.165Z,0
2017-08-26T04:58:51.627Z,0
2017-08-26T04:59:32.081Z,0
2017-08-26T05:00:12.538Z,0
2017-08-26T05:00:52.998Z,0
2017-08-26T05:01:33.454Z,0
2017-08-26T05:02:13.904Z,0
2017-08-26T05:02:54.370Z,0
2017-08-26T05:03:34.827Z,0
2017-08-26T05:04:15.280Z,0
2017-08-26T05:04:55.734Z,0
2017-08-26T05:05:36.194Z,0
2017-08-26T05:06:16.646Z,0
2017-08-26T05:06:57.141Z,0
2017-08-26T05:07:37.613Z,0
2017-08-26T05:08:18.072Z,0
2017-08-26T05:08:58.522Z,0
2017-08-26T05:09:38.987Z,0
2017-08-26T05:10:19.445Z,0
2017-08-26T05:10:59.899Z,0
2017-08-26T05:11:40.348Z,0
2017-08-26T05:12:20.797Z,0
2017-08-26T05:13:01.246Z,0
2017-08-26T05:13:41.702Z,0
2017-08-26T05:14:22.167Z,0
2017-08-26T05:15:02.624Z,0
2017-08-26T05:15:43.097Z,0
2017-08-26T05:16:23.553Z,0
2017-08-26T05:17:04.006Z,0
2017-08-26T05:17:44.455Z,0
2017-08-26T05:18:24.915Z,0
2017-08-26T05:19:05.379Z,0
2017-08-26T05:19:45.828Z,0
2017-08-26T05:20:26.289Z,0
2017-08-26T05:21:06.741Z,0
2017-08-26T05:21:47.207Z,0
2017-08-26T05:22:27.665Z,0
2017-08-26T05:23:08.126Z,0
2017-08-26T05:23:48.585Z,0
2017-08-26T05:24:29.039Z,0
2017-08-26T05:25:09.493Z,0
2017-08-26T05:25:49.951Z,0
2017-08-26T05:26:30.400Z,0
2017-08-26T05:27:10.864Z,0
2017-08-26T05:27:51.329Z,0
2017-08-26T05:28:31.805Z,0
2017-08-26T05:29:12.253Z,0
2017-08-26T05:29:52.710Z,0
2017-08-26T05:30:33.168Z,0
2017-08-26T05:31:13.616Z,0
2017-08-26T05:31:54.077Z,0
2017-08-26T05:32:34.533Z,0
2017-08-26T05:33:14.984Z,0
2017-08-26T05:33:55.447Z,0
2017-08-26T05:34:35.892Z,0
2017-08-26T05:35:16.427Z,0
2017-08-26T05:35:56.795Z,0
2017-08-26T05:36:37.249Z,0
2017-08-26T05:37:17.731Z,0
2017-08-26T05:37:58.180Z,0
2017-08-26T05:38:38.640Z,0
2017-08-26T05:39:19.094Z,0
2017-08-26T05:39:59.552Z,0
2017-08-26T05:40:40.003Z,0
2017-08-26T05:41:20.464Z,0
2017-08-26T05:42:00.933Z,0
2017-08-26T05:42:41.383Z,0
2017-08-26T05:43:21.844Z,0
2017-08-26T05:44:02.339Z,0
2017-08-26T05:44:42.789Z,0
2017-08-26T05:45:23.242Z,0
2017-08-26T05:46:03.689Z,0
2017-08-26T05:46:44.141Z,0
2017-08-26T05:47:24.595Z,0
2017-08-26T05:48:05.039Z,0
2017-08-26T05:48:45.496Z,0
2017-08-26T05:49:25.949Z,0
2017-08-26T05:50:06.420Z,0
2017-08-26T05:50:46.879Z,0
2017-08-26T05:51:27.328Z,0
2017-08-26T05:52:07.792Z,0
2017-08-26T05:52:48.262Z,0
2017-08-26T05:53:28.713Z,0
2017-08-26T05:54:09.153Z,0
2017-08-26T05:54:49.610Z,0
2017-08-26T05:55:30.069Z,0
2017-08-26T05:56:10.508Z,0
2017-08-26T05:56:50.964Z,0
2017-08-26T05:57:31.419Z,0
2017-08-26T05:58:11.877Z,0
2017-08-26T05:58:52.323Z,0
2017-08-26T05:59:32.782Z,0
2017-08-26T06:00:13.250Z,0
2017-08-26T06:00:54.232Z,0
2017-08-26T06:01:34.633Z,0
2017-08-26T06:02:15.505Z,0
2017-08-26T06:02:55.927Z,0
2017-08-26T06:03:36.379Z,0
2017-08-26T06:04:16.835Z,0
2017-08-26T06:04:57.322Z,0
2017-08-26T06:05:37.725Z,0
2017-08-26T06:06:18.163Z,0
2017-08-26T06:06:58.612Z,0
2017-08-26T06:07:39.062Z,0
2017-08-26T06:08:19.522Z,0
2017-08-26T06:08:59.984Z,0
2017-08-26T06:09:40.439Z,0
2017-08-26T06:10:20.898Z,0
2017-08-26T06:11:01.362Z,0
2017-08-26T06:11:41.825Z,0
2017-08-26T06:12:22.287Z,0
2017-08-26T06:13:02.742Z,0
2017-08-26T06:13:43.193Z,0
2017-08-26T06:14:23.654Z,0
2017-08-26T06:15:04.106Z,0
2017-08-26T06:15:44.599Z,0
2017-08-26T06:16:25.054Z,0
2017-08-26T06:17:05.516Z,0
2017-08-26T06:17:45.982Z,0
2017-08-26T06:18:26.439Z,0
2017-08-26T06:19:06.899Z,0
2017-08-26T06:19:47.361Z,0
2017-08-26T06:20:27.824Z,0
2017-08-26T06:21:08.273Z,0
2017-08-26T06:21:48.764Z,0
2017-08-26T06:22:29.213Z,0
2017-08-26T06:23:09.674Z,0
2017-08-26T06:23:50.131Z,0
2017-08-26T06:24:30.586Z,0
2017-08-26T06:25:11.030Z,0
2017-08-26T06:25:51.487Z,0
2017-08-26T06:26:31.945Z,0
2017-08-26T06:27:12.401Z,0
2017-08-26T06:27:52.855Z,0
2017-08-26T06:28:33.310Z,0
2017-08-26T06:29:13.777Z,0
2017-08-26T06:29:54.241Z,0
2017-08-26T06:30:34.711Z,0
2017-08-26T06:31:15.169Z,0
2017-08-26T06:31:55.618Z,0
2017-08-26T06:32:36.097Z,0
2017-08-26T06:33:16.537Z,0
2017-08-26T06:33:56.992Z,0
2017-08-26T06:34:37.459Z,0
2017-08-26T06:35:17.923Z,0
2017-08-26T06:35:58.373Z,0
2017-08-26T06:36:38.825Z,0
2017-08-26T06:37:19.283Z,0
2017-08-26T06:37:59.745Z,0
2017-08-26T06:38:40.200Z,0
2017-08-26T06:39:20.641Z,0
2017-08-26T06:40:01.084Z,0
2017-08-26T06:40:41.544Z,0
2017-08-26T06:41:21.991Z,0
2017-08-26T06:42:02.528Z,0
2017-08-26T06:42:42.982Z,0
2017-08-26T06:43:23.438Z,0
2017-08-26T06:44:03.900Z,0
2017-08-26T06:44:44.356Z,0
2017-08-26T06:45:24.807Z,0
2017-08-26T06:46:05.262Z,0
2017-08-26T06:46:45.716Z,0
2017-08-26T06:47:26.170Z,0
2017-08-26T06:48:06.619Z,0
2017-08-26T06:48:47.059Z,0
2017-08-26T06:49:27.533Z,0
2017-08-26T06:50:07.976Z,0
2017-08-26T06:50:48.431Z,0
2017-08-26T06:51:28.887Z,0
2017-08-26T06:52:09.347Z,0
2017-08-26T06:52:49.810Z,0
2017-08-26T06:53:30.268Z,0
2017-08-26T06:54:10.722Z,0
2017-08-26T06:54:51.185Z,0
2017-08-26T06:55:31.640Z,0
2017-08-26T06:56:12.093Z,0
2017-08-26T06:56:52.550Z,0
2017-08-26T06:57:33.027Z,0
2017-08-26T06:58:13.485Z,0
2017-08-26T06:58:53.942Z,0
2017-08-26T06:59:34.397Z,0
2017-08-26T07:00:14.850Z,0
2017-08-26T07:00:55.299Z,0
2017-08-26T07:01:35.756Z,0
2017-08-26T07:02:16.234Z,0
2017-08-26T07:02:56.667Z,0
2017-08-26T07:03:37.122Z,0
2017-08-26T07:04:17.590Z,0
2017-08-26T07:04:58.082Z,0
2017-08-26T07:05:38.527Z,0
2017-08-26T07:06:18.983Z,0
2017-08-26T07:06:59.557Z,0
2017-08-26T07:07:39.992Z,0
2017-08-26T07:08:20.438Z,0
2017-08-26T07:09:00.879Z,50
2017-08-26T07:09:41.318Z,50
2017-08-26T07:10:21.757Z,95
2017-08-26T07:11:02.209Z,95
2017-08-26T07:11:42.654Z,100
2017-08-26T07:12:23.107Z,100
2017-08-26T07:13:03.564Z,100
2017-08-26T07:13:44.024Z,50
2017-08-26T07:14:24.483Z,50
2017-08-26T07:15:04.942Z,50
2017-08-26T07:15:45.409Z,50
2017-08-26T07:16:25.862Z,50
2017-08-26T07:17:06.323Z,50
2017-08-26T07:17:46.791Z,50
2017-08-26T07:18:27.249Z,50
2017-08-26T07:19:07.711Z,55
2017-08-26T07:19:48.162Z,55
2017-08-26T07:20:28.609Z,55
2017-08-26T07:21:09.062Z,55
2017-08-26T07:21:49.522Z,55
2017-08-26T07:22:29.972Z,60
2017-08-26T07:23:10.445Z,60
2017-08-26T07:23:50.892Z,60
2017-08-26T07:24:31.348Z,60
2017-08-26T07:25:11.815Z,60
2017-08-26T07:25:52.284Z,60
2017-08-26T07:26:32.743Z,60
2017-08-26T07:27:13.197Z,65
2017-08-26T07:27:53.659Z,65
2017-08-26T07:28:34.095Z,65
2017-08-26T07:29:14.542Z,65
2017-08-26T07:29:54.988Z,65
2017-08-26T07:30:35.416Z,65
2017-08-26T07:31:15.901Z,65
2017-08-26T07:31:56.357Z,65
2017-08-26T07:32:36.802Z,65
2017-08-26T07:33:17.266Z,60
2017-08-26T07:33:57.715Z,60
2017-08-26T07:34:38.155Z,60
2017-08-26T07:35:18.600Z,60
2017-08-26T07:35:59.051Z,65
2017-08-26T07:36:39.480Z,65
2017-08-26T07:37:19.932Z,65
2017-08-26T07:38:00.401Z,65
2017-08-26T07:38:40.854Z,70
2017-08-26T07:39:21.324Z,70
2017-08-26T07:40:01.786Z,70
2017-08-26T07:40:42.250Z,75
2017-08-26T07:41:22.790Z,75
2017-08-26T07:42:03.258Z,75
2017-08-26T07:42:43.697Z,75
2017-08-26T07:43:24.167Z,75
2017-08-26T07:44:04.612Z,75
2017-08-26T07:44:45.056Z,75
2017-08-26T07:45:25.504Z,75
2017-08-26T07:46:05.932Z,75
2017-08-26T07:46:46.380Z,75
2017-08-26T07:47:26.839Z,75
2017-08-26T07:48:07.293Z,75
2017-08-26T07:48:47.751Z,75
2017-08-26T07:49:28.213Z,75
2017-08-26T07:51:56.206Z,75
2017-08-26T07:52:36.682Z,70
2017-08-26T07:53:17.138Z,80
2017-08-26T07:53:57.596Z,80
2017-08-26T07:54:38.056Z,85
2017-08-26T07:55:18.495Z,80
2017-08-26T07:55:58.952Z,85
2017-08-26T07:56:39.402Z,85
2017-08-26T07:57:19.847Z,85
2017-08-26T07:58:00.296Z,85
2017-08-26T07:58:40.745Z,85
2017-08-26T07:59:21.190Z,85
2017-08-26T08:00:01.661Z,85
2017-08-26T08:00:42.137Z,85
2017-08-26T08:01:22.542Z,90
2017-08-26T08:02:03.004Z,65
2017-08-26T08:02:43.449Z,60
2017-08-26T08:03:23.891Z,60
2017-08-26T08:04:04.332Z,50
2017-08-26T08:04:44.776Z,75
2017-08-26T08:05:25.228Z,55
2017-08-26T08:06:05.680Z,50
2017-08-26T08:06:46.114Z,45
2017-08-26T08:07:26.576Z,45
2017-08-26T08:08:07.034Z,45
2017-08-26T08:08:47.480Z,45
2017-08-26T08:09:28.810Z,50
2017-08-26T08:10:09.265Z,45
2017-08-26T08:10:49.726Z,45
2017-08-26T08:11:30.175Z,40
2017-08-26T08:12:10.633Z,40
2017-08-26T08:12:51.091Z,40
2017-08-26T08:13:31.540Z,45
2017-08-26T08:16:04.608Z,50
2017-08-26T08:16:45.064Z,60
2017-08-26T08:17:25.507Z,60
2017-08-26T08:18:05.962Z,55
2017-08-26T08:18:46.438Z,55
2017-08-26T08:19:26.898Z,50
2017-08-26T08:20:07.333Z,50
2017-08-26T08:20:47.762Z,60
2017-08-26T08:21:28.205Z,65
2017-08-26T08:22:08.654Z,70
2017-08-26T08:22:49.101Z,65
2017-08-26T08:23:29.550Z,90
2017-08-26T08:24:10.000Z,70
2017-08-26T08:24:50.444Z,70
2017-08-26T08:25:30.943Z,60
2017-08-26T08:26:11.367Z,55
2017-08-26T08:26:51.787Z,60
2017-08-26T08:27:32.223Z,90
2017-08-26T08:28:12.668Z,85
2017-08-26T08:28:53.073Z,100
2017-08-26T08:31:10.947Z,70
2017-08-26T08:31:51.407Z,70
2017-08-26T08:32:31.875Z,70
2017-08-26T08:33:12.331Z,65
2017-08-26T08:33:52.780Z,60
2017-08-26T08:34:33.298Z,85
2017-08-26T08:35:13.745Z,80
2017-08-26T08:35:54.296Z,65
2017-08-26T08:36:34.720Z,110
2017-08-26T08:37:15.146Z,60
2017-08-26T08:37:55.584Z,60
2017-08-26T08:38:35.987Z,85
2017-08-26T08:39:16.429Z,75
2017-08-26T08:39:56.860Z,55
2017-08-26T08:40:37.281Z,55
2017-08-26T08:41:17.748Z,75
2017-08-26T08:41:58.186Z,55
2017-08-26T08:42:38.636Z,55
2017-08-26T08:43:19.028Z,105
2017-08-26T08:43:59.440Z,110
2017-08-26T08:44:39.844Z,110
2017-08-26T08:45:20.262Z,75
2017-08-26T08:46:00.702Z,75
2017-08-26T08:46:41.112Z,95
2017-08-26T08:47:21.537Z,110
2017-08-26T08:48:01.957Z,75
2017-08-26T08:48:42.343Z,110
2017-08-26T08:49:22.782Z,110
2017-08-26T08:50:03.227Z,110
2017-08-26T08:50:43.695Z,110
2017-08-26T08:51:24.147Z,110
2017-08-26T08:52:04.598Z,110
2017-08-26T08:52:45.026Z,110
2017-08-26T08:53:25.504Z,110
2017-08-26T08:54:05.970Z,110
2017-08-26T08:54:46.420Z,110
2017-08-26T08:55:26.871Z,110
2017-08-26T08:56:07.316Z,110
2017-08-26T08:56:47.756Z,110
2017-08-26T08:57:28.217Z,110
2017-08-26T08:58:08.666Z,115
2017-08-26T08:58:49.113Z,115
2017-08-26T08:59:29.569Z,115
2017-08-26T09:00:10.014Z,115
2017-08-26T09:00:50.477Z,115
2017-08-26T09:01:30.941Z,115
2017-08-26T09:02:11.401Z,115
2017-08-26T09:02:51.875Z,115
2017-08-26T09:03:32.346Z,120
2017-08-26T09:04:12.799Z,120
2017-08-26T09:04:53.250Z,120
2017-08-26T09:05:33.709Z,120
2017-08-26T09:06:14.147Z,120
2017-08-26T09:06:54.608Z,120
2017-08-26T09:07:35.048Z,120
2017-08-26T09:08:15.503Z,120
2017-08-26T09:08:55.966Z,120
2017-08-26T09:09:36.391Z,120
2017-08-26T09:10:16.856Z,120
2017-08-26T09:10:57.323Z,120
2017-08-26T09:11:37.755Z,120
2017-08-26T09:12:18.240Z,120
2017-08-26T09:12:58.650Z,120
2017-08-26T09:13:39.111Z,120
2017-08-26T09:14:19.566Z,120
2017-08-26T09:15:00.025Z,120
2017-08-26T09:15:40.473Z,120
2017-08-26T09:16:20.922Z,125
2017-08-26T09:17:01.380Z,120
2017-08-26T09:17:41.830Z,125
2017-08-26T09:18:22.279Z,125
2017-08-26T09:19:02.747Z,125
2017-08-26T09:19:43.191Z,125
2017-08-26T09:20:23.640Z,125
2017-08-26T09:21:04.094Z,125
2017-08-26T09:21:44.554Z,125
2017-08-26T09:22:24.994Z,125
2017-08-26T09:23:05.454Z,125
2017-08-26T09:23:45.907Z,125
2017-08-26T09:24:26.365Z,125
2017-08-26T09:25:06.817Z,125
2017-08-26T09:25:47.289Z,125
2017-08-26T09:26:27.771Z,125
2017-08-26T09:27:08.154Z,125
2017-08-26T09:27:48.549Z,125
2017-08-26T09:28:28.960Z,130
2017-08-26T09:29:09.348Z,120
2017-08-26T09:29:49.763Z,105
2017-08-26T09:30:30.190Z,95
2017-08-26T09:31:10.577Z,75
2017-08-26T09:31:51.014Z,110
2017-08-26T09:32:31.468Z,120
2017-08-26T09:33:11.922Z,130
2017-08-26T09:33:52.388Z,130
2017-08-26T09:34:32.832Z,130
2017-08-26T09:35:13.273Z,125
2017-08-26T09:35:53.715Z,120
2017-08-26T09:36:34.174Z,65
2017-08-26T09:37:14.633Z,105
2017-08-26T09:37:55.072Z,65
2017-08-26T09:38:35.473Z,75
2017-08-26T09:39:15.934Z,75
2017-08-26T09:39:56.442Z,135
2017-08-26T09:40:36.902Z,75
2017-08-26T09:41:17.348Z,130
2017-08-26T09:41:57.797Z,135
2017-08-26T09:42:38.253Z,130
2017-08-26T09:43:18.696Z,130
2017-08-26T09:43:59.141Z,130
2017-08-26T09:44:39.641Z,130
2017-08-26T09:45:20.113Z,125
2017-08-26T09:46:00.539Z,125
2017-08-26T09:46:40.978Z,125
2017-08-26T09:47:21.397Z,130
2017-08-26T09:48:01.798Z,135
2017-08-26T09:48:42.211Z,95
2017-08-26T09:49:22.634Z,110
2017-08-26T09:50:03.075Z,100
2017-08-26T09:50:43.522Z,95
2017-08-26T09:51:23.986Z,60
2017-08-26T09:52:04.441Z,105
2017-08-26T09:52:44.886Z,55
2017-08-26T09:53:25.295Z,60
2017-08-26T09:54:05.723Z,80
2017-08-26T09:54:46.124Z,110
2017-08-26T09:55:26.521Z,135
2017-08-26T09:56:06.931Z,135
2017-08-26T09:58:45.051Z,135
2017-08-26T09:59:25.504Z,130
2017-08-26T10:00:05.942Z,130
2017-08-26T10:00:46.402Z,125
2017-08-26T10:01:26.850Z,130
2017-08-26T10:02:07.323Z,125